Time;durP1;ratioP1;P1;durP2;ratioP2;P2;SDS_P1;SDS_P2;PMS_P1;PMS_P2;Temp;Humidity;BMP_temperature;BMP_pressure;BME280_temperature;BME280_humidity;BME280_pressure;Samples;Min_cycle;Max_cycle;Signal;HPM_P1;HPM_P2
2022/06/13 00:00:50;;;;;;;11.25;5.28;;;;;;;;;;5050847;28;20049;-67
2022/06/13 00:03:16;;;;;;;14.95;5.93;;;;;;;;;;5050829;28;20041;-67
2022/06/13 00:05:42;;;;;;;14.15;5.50;;;;;;;;;;5052017;28;20053;-67
2022/06/13 00:08:08;;;;;;;11.32;5.40;;;;;;;;;;5049710;28;20049;-67
2022/06/13 00:10:34;;;;;;;13.45;5.88;;;;;;;;;;5050629;28;20041;-67
2022/06/13 00:13:00;;;;;;;11.52;6.18;;;;;;;;;;5050433;28;20044;-67
2022/06/13 00:15:26;;;;;;;10.38;5.30;;;;;;;;;;5049807;28;20044;-67
2022/06/13 00:17:52;;;;;;;10.93;5.32;;;;;;;;;;5051189;28;20048;-67
2022/06/13 00:20:18;;;;;;;12.98;5.03;;;;;;;;;;5050647;28;20041;-67
2022/06/13 00:22:44;;;;;;;11.40;4.97;;;;;;;;;;5049705;28;20386;-67
2022/06/13 00:25:11;;;;;;;17.33;5.72;;;;;;;;;;5051411;28;20543;-67
2022/06/13 00:27:37;;;;;;;13.32;5.82;;;;;;;;;;5034071;28;20049;-67
2022/06/13 00:30:05;;;;;;;12.15;4.75;;;;;;;;;;5032345;28;20067;-67
2022/06/13 00:32:31;;;;;;;12.43;6.13;;;;;;;;;;5051742;28;20087;-67
2022/06/13 00:34:57;;;;;;;11.13;5.93;;;;;;;;;;5051456;28;20126;-67
2022/06/13 00:37:25;;;;;;;13.80;5.78;;;;;;;;;;5049848;28;20375;-67
2022/06/13 00:39:53;;;;;;;11.93;5.35;;;;;;;;;;5049754;28;20519;-67
2022/06/13 00:42:22;;;;;;;12.88;5.35;;;;;;;;;;5050420;28;20037;-67
2022/06/13 00:45:10;;;;;;;16.92;6.32;;;;;;;;;;5049567;28;20037;-67
2022/06/13 00:47:42;;;;;;;13.27;6.15;;;;;;;;;;5050423;28;20520;-67
2022/06/13 00:50:12;;;;;;;14.82;6.25;;;;;;;;;;5032774;28;20045;-67
2022/06/13 00:52:45;;;;;;;14.65;6.25;;;;;;;;;;5051743;28;20124;-67
2022/06/13 00:55:16;;;;;;;11.57;5.78;;;;;;;;;;5053498;28;20036;-67
2022/06/13 00:57:44;;;;;;;12.15;6.05;;;;;;;;;;5053099;28;20056;-67
2022/06/13 01:00:14;;;;;;;15.13;5.75;;;;;;;;;;5053651;28;20037;-67
2022/06/13 01:02:44;;;;;;;13.75;6.60;;;;;;;;;;5054137;28;20119;-67
2022/06/13 01:05:12;;;;;;;14.00;6.35;;;;;;;;;;5053028;28;20122;-67
2022/06/13 01:07:40;;;;;;;12.10;5.90;;;;;;;;;;5053960;28;20045;-67
2022/06/13 01:12:58;;;;;;;16.65;7.05;;;;;;;;;;5052396;28;20049;-67
2022/06/13 01:15:40;;;;;;;13.93;6.53;;;;;;;;;;5054974;28;20047;-67
2022/06/13 01:18:18;;;;;;;15.13;6.55;;;;;;;;;;5052162;28;20048;-67
2022/06/13 01:20:59;;;;;;;12.43;5.65;;;;;;;;;;5036547;28;20040;-67
2022/06/13 01:23:46;;;;;;;13.82;5.90;;;;;;;;;;5053355;28;20043;-67
2022/06/13 01:26:36;;;;;;;11.60;5.20;;;;;;;;;;5052735;28;20044;-67
2022/06/13 01:29:02;;;;;;;11.57;5.80;;;;;;;;;;5052952;28;20499;-67
2022/06/13 01:31:33;;;;;;;13.43;5.97;;;;;;;;;;5036828;28;20095;-67
2022/06/13 01:34:19;;;;;;;11.05;5.63;;;;;;;;;;5053286;28;20501;-67
2022/06/13 01:36:57;;;;;;;12.18;6.07;;;;;;;;;;5053304;28;20044;-67
2022/06/13 01:39:35;;;;;;;16.58;6.10;;;;;;;;;;5052218;28;20044;-67
2022/06/13 01:42:13;;;;;;;9.38;5.38;;;;;;;;;;5052606;28;20504;-67
2022/06/13 01:44:58;;;;;;;14.98;6.85;;;;;;;;;;5054478;28;20036;-67
2022/06/13 01:47:34;;;;;;;13.93;5.97;;;;;;;;;;5053474;28;20500;-67
2022/06/13 01:50:02;;;;;;;11.15;5.40;;;;;;;;;;5052336;28;20048;-67
2022/06/13 01:52:34;;;;;;;11.00;5.10;;;;;;;;;;5052839;28;20052;-67
2022/06/13 01:55:11;;;;;;;12.02;5.35;;;;;;;;;;5051765;28;20052;-67
2022/06/13 01:57:41;;;;;;;10.68;4.90;;;;;;;;;;5054191;28;20174;-67
2022/06/13 02:00:08;;;;;;;11.10;5.28;;;;;;;;;;5052576;28;20040;-67
2022/06/13 02:02:39;;;;;;;13.45;4.95;;;;;;;;;;5054246;28;20115;-67
2022/06/13 02:05:11;;;;;;;11.85;5.20;;;;;;;;;;5052784;28;20032;-67
2022/06/13 02:07:42;;;;;;;10.50;4.80;;;;;;;;;;5052002;28;20140;-67
2022/06/13 02:10:18;;;;;;;10.70;4.68;;;;;;;;;;5052353;28;20052;-67
2022/06/13 02:12:49;;;;;;;10.70;5.15;;;;;;;;;;5052610;28;20041;-67
2022/06/13 02:15:18;;;;;;;12.05;4.93;;;;;;;;;;5051846;28;20044;-67
2022/06/13 02:17:51;;;;;;;10.25;5.30;;;;;;;;;;5052135;28;20076;-67
2022/06/13 02:20:23;;;;;;;10.00;4.70;;;;;;;;;;5053586;28;20087;-67
2022/06/13 02:22:49;;;;;;;10.80;5.07;;;;;;;;;;5052170;28;20052;-67
2022/06/13 02:25:20;;;;;;;9.93;5.15;;;;;;;;;;5053573;28;20417;-67
2022/06/13 02:28:18;;;;;;;11.73;4.15;;;;;;;;;;5053514;28;20037;-67
2022/06/13 02:30:52;;;;;;;12.48;4.32;;;;;;;;;;5029841;28;20135;-67
2022/06/13 02:33:29;;;;;;;11.55;3.72;;;;;;;;;;5052069;28;20131;-67
2022/06/13 02:36:00;;;;;;;14.52;3.92;;;;;;;;;;5050906;28;20048;-67
2022/06/13 02:38:37;;;;;;;8.27;3.00;;;;;;;;;;5052264;28;20516;-67
2022/06/13 02:41:07;;;;;;;9.43;3.38;;;;;;;;;;5052756;28;20041;-67
2022/06/13 02:43:37;;;;;;;9.68;3.00;;;;;;;;;;5052475;28;20071;-67
2022/06/13 02:46:17;;;;;;;9.32;3.33;;;;;;;;;;5052536;28;20047;-67
2022/06/13 02:48:43;;;;;;;11.25;3.28;;;;;;;;;;5053048;28;20041;-67
2022/06/13 02:51:17;;;;;;;8.73;4.03;;;;;;;;;;5050905;28;20052;-67
2022/06/13 02:53:52;;;;;;;8.13;3.10;;;;;;;;;;5051839;28;20045;-67
2022/06/13 02:57:23;;;;;;;8.15;3.20;;;;;;;;;;5052959;28;20041;-67
2022/06/13 02:59:27;;;;;;;9.70;3.40;;;;;;;;;;5051644;28;20647;-67
2022/06/13 03:01:58;;;;;;;11.55;3.03;;;;;;;;;;5050946;28;20047;-67
2022/06/13 03:04:46;;;;;;;11.95;3.90;;;;;;;;;;5051054;28;20110;-67
2022/06/13 03:07:20;;;;;;;10.00;3.70;;;;;;;;;;5051185;28;20528;-67
2022/06/13 03:09:51;;;;;;;9.77;3.10;;;;;;;;;;5051229;28;20062;-67
2022/06/13 03:12:27;;;;;;;8.73;3.03;;;;;;;;;;5051924;28;20752;-67
2022/06/13 03:14:59;;;;;;;10.38;3.63;;;;;;;;;;5051112;28;20095;-67
2022/06/13 03:17:26;;;;;;;9.65;3.88;;;;;;;;;;5050564;28;20044;-67
2022/06/13 03:20:03;;;;;;;9.45;3.78;;;;;;;;;;5050498;28;20053;-67
2022/06/13 03:22:35;;;;;;;10.60;3.47;;;;;;;;;;5052708;28;20041;-67
2022/06/13 03:25:22;;;;;;;10.45;3.30;;;;;;;;;;5050257;28;20048;-67
2022/06/13 03:27:54;;;;;;;8.20;3.20;;;;;;;;;;5051354;28;20074;-67
2022/06/13 03:30:22;;;;;;;10.40;3.30;;;;;;;;;;5052477;28;20057;-67
2022/06/13 03:35:43;;;;;;;8.65;3.53;;;;;;;;;;5052369;28;20037;-67
2022/06/13 03:38:11;;;;;;;10.00;2.72;;;;;;;;;;5050928;28;20482;-67
2022/06/13 03:40:41;;;;;;;9.70;3.78;;;;;;;;;;5051488;28;20045;-67
2022/06/13 03:43:17;;;;;;;9.48;3.38;;;;;;;;;;5034133;28;20520;-67
2022/06/13 03:45:55;;;;;;;12.63;3.50;;;;;;;;;;5050035;28;20045;-67
2022/06/13 03:48:30;;;;;;;12.25;4.28;;;;;;;;;;5050985;28;20041;-67
2022/06/13 03:51:01;;;;;;;9.73;2.78;;;;;;;;;;5050888;28;20053;-67
2022/06/13 03:53:43;;;;;;;11.57;3.65;;;;;;;;;;5051480;28;20041;-67
2022/06/13 03:56:17;;;;;;;9.15;2.75;;;;;;;;;;5051995;28;20406;-67
2022/06/13 03:58:48;;;;;;;9.40;3.42;;;;;;;;;;5050632;28;20060;-67
2022/06/13 04:01:24;;;;;;;8.65;2.95;;;;;;;;;;5050034;28;20049;-67
2022/06/13 04:03:51;;;;;;;8.32;2.42;;;;;;;;;;5050134;28;20052;-66
2022/06/13 04:06:33;;;;;;;13.48;3.10;;;;;;;;;;5052185;28;20043;-66
2022/06/13 04:09:01;;;;;;;6.22;2.63;;;;;;;;;;5050667;28;20041;-66
2022/06/13 04:11:44;;;;;;;7.05;2.58;;;;;;;;;;5051892;28;20053;-66
2022/06/13 04:14:24;;;;;;;8.15;2.47;;;;;;;;;;5051115;28;20045;-67
2022/06/13 04:17:00;;;;;;;5.88;2.17;;;;;;;;;;5050446;28;20520;-66
2022/06/13 04:19:32;;;;;;;6.63;2.15;;;;;;;;;;5050451;28;20044;-67
2022/06/13 04:22:06;;;;;;;8.75;2.97;;;;;;;;;;5050501;28;20037;-67
2022/06/13 04:24:48;;;;;;;10.68;2.70;;;;;;;;;;5034030;28;20083;-67
2022/06/13 04:27:23;;;;;;;7.80;2.33;;;;;;;;;;5051981;28;20052;-67
2022/06/13 04:29:58;;;;;;;5.57;1.65;;;;;;;;;;5035479;28;20036;-67
2022/06/13 04:32:36;;;;;;;5.25;2.10;;;;;;;;;;5055580;28;20080;-67
2022/06/13 04:35:04;;;;;;;6.13;1.40;;;;;;;;;;5053367;28;20110;-67
2022/06/13 04:37:31;;;;;;;6.82;2.40;;;;;;;;;;5055650;28;20512;-67
2022/06/13 04:40:00;;;;;;;4.18;1.63;;;;;;;;;;5053691;28;20041;-67
2022/06/13 04:42:28;;;;;;;5.53;1.65;;;;;;;;;;5054675;28;20076;-67
2022/06/13 04:44:57;;;;;;;6.00;1.77;;;;;;;;;;5054827;28;20073;-67
2022/06/13 04:47:23;;;;;;;4.80;1.50;;;;;;;;;;5054143;28;20120;-67
2022/06/13 04:49:53;;;;;;;8.02;2.10;;;;;;;;;;5054189;28;20041;-67
2022/06/13 04:52:22;;;;;;;7.15;2.60;;;;;;;;;;5055423;28;20129;-67
2022/06/13 04:54:59;;;;;;;6.95;2.17;;;;;;;;;;5053906;28;20170;-67
2022/06/13 04:57:26;;;;;;;4.20;1.83;;;;;;;;;;5054718;28;20052;-67
2022/06/13 04:59:52;;;;;;;7.43;2.60;;;;;;;;;;5054749;28;20166;-66
2022/06/13 05:02:20;;;;;;;7.03;1.77;;;;;;;;;;5051577;28;20069;-66
2022/06/13 05:04:46;;;;;;;5.38;2.05;;;;;;;;;;5028195;28;20097;-66
2022/06/13 05:07:17;;;;;;;4.30;1.65;;;;;;;;;;5054678;28;20509;-66
2022/06/13 05:09:55;;;;;;;6.63;1.67;;;;;;;;;;5053255;28;20494;-67
2022/06/13 05:12:30;;;;;;;5.32;1.58;;;;;;;;;;5053167;28;20563;-66
2022/06/13 05:15:01;;;;;;;4.53;1.60;;;;;;;;;;5052981;28;20512;-66
2022/06/13 05:17:46;;;;;;;5.82;1.58;;;;;;;;;;5054244;28;20043;-67
2022/06/13 05:20:35;;;;;;;7.43;1.85;;;;;;;;;;5033367;28;20084;-67
2022/06/13 05:23:10;;;;;;;6.10;1.73;;;;;;;;;;5025491;28;20042;-67
2022/06/13 05:25:44;;;;;;;6.10;2.03;;;;;;;;;;5034226;28;20048;-67
2022/06/13 05:28:11;;;;;;;4.88;1.60;;;;;;;;;;5034589;28;20040;-67
2022/06/13 05:30:39;;;;;;;7.53;2.10;;;;;;;;;;5033137;28;20068;-67
2022/06/13 05:33:06;;;;;;;4.57;1.55;;;;;;;;;;5032023;28;20057;-66
2022/06/13 05:35:33;;;;;;;8.57;1.60;;;;;;;;;;5025751;28;20469;-67
2022/06/13 05:38:01;;;;;;;9.40;2.10;;;;;;;;;;5052539;28;20045;-67
2022/06/13 05:40:27;;;;;;;7.20;1.75;;;14.10;99.90;;;;;;5052385;28;20474;-65
2022/06/13 05:42:53;;;;;;;7.75;2.03;;;14.40;99.90;;;;;;5053631;28;20116;-66
2022/06/13 05:45:24;;;;;;;6.97;2.20;;;14.50;99.90;;;;;;5052309;28;20037;-65
2022/06/13 05:47:53;;;;;;;5.63;1.50;;;14.50;99.90;;;;;;5054040;28;20045;-66
2022/06/13 05:50:24;;;;;;;8.63;3.15;;;14.80;99.90;;;;;;5053165;28;20041;-66
2022/06/13 05:52:51;;;;;;;5.13;1.70;;;15.00;99.90;;;;;;5049180;28;20083;-66
2022/06/13 05:55:18;;;;;;;6.45;2.17;;;15.00;99.90;;;;;;5044815;28;20049;-66
2022/06/13 05:57:44;;;;;;;5.88;2.08;;;;;;;;;;5031131;28;20049;-66
2022/06/13 06:00:22;;;;;;;9.43;2.03;;;;;;;;;;5029107;28;20049;-66
2022/06/13 06:02:48;;;;;;;8.05;1.58;;;;;;;;;;5029650;28;20041;-66
2022/06/13 06:05:14;;;;;;;7.43;1.88;;;;;;;;;;5028839;28;20129;-66
2022/06/13 06:07:41;;;;;;;7.45;2.00;;;15.60;99.90;;;;;;5029195;28;20033;-66
2022/06/13 06:10:13;;;;;;;6.57;1.73;;;15.70;99.90;;;;;;5030634;28;20056;-66
2022/06/13 06:12:39;;;;;;;5.47;1.63;;;;;;;;;;5030882;28;20042;-66
2022/06/13 06:15:05;;;;;;;6.35;1.67;;;;;;;;;;5059563;28;20131;-66
2022/06/13 06:17:32;;;;;;;5.57;1.70;;;;;;;;;;5049898;28;20099;-66
2022/06/13 06:19:58;;;;;;;8.30;1.92;;;;;;;;;;5029706;28;20053;-66
2022/06/13 06:22:24;;;;;;;8.15;2.38;;;;;;;;;;5045155;28;20080;-66
2022/06/13 06:24:50;;;;;;;7.38;1.70;;;;;;;;;;5029668;28;20045;-66
2022/06/13 06:27:16;;;;;;;5.63;1.52;;;;;;;;;;5042608;28;20082;-66
2022/06/13 06:29:43;;;;;;;7.47;1.60;;;;;;;;;;5051066;28;20036;-67
2022/06/13 06:32:10;;;;;;;6.60;1.90;;;;;;;;;;5044776;28;20041;-66
2022/06/13 06:34:36;;;;;;;9.13;2.83;;;;;;;;;;5054959;28;20381;-66
2022/06/13 06:37:02;;;;;;;8.85;2.17;;;;;;;;;;5034006;28;20171;-66
2022/06/13 06:39:28;;;;;;;9.20;1.92;;;;;;;;;;5047637;28;20037;-66
2022/06/13 06:41:55;;;;;;;5.85;1.77;;;;;;;;;;5047301;28;20052;-66
2022/06/13 06:44:21;;;;;;;10.05;2.15;;;;;;;;;;5048810;28;20048;-66
2022/06/13 06:46:48;;;;;;;8.13;2.03;;;;;;;;;;5050067;28;20489;-66
2022/06/13 06:49:14;;;;;;;9.48;2.28;;;;;;;;;;5047539;28;20048;-66
2022/06/13 06:51:44;;;;;;;7.43;2.13;;;;;;;;;;5036016;28;20045;-66
2022/06/13 06:59:55;;;;;;;9.82;2.13;;;;;;;;;;5048481;28;20131;-66
2022/06/13 07:02:23;;;;;;;9.98;2.65;;;;;;;;;;5049047;28;20045;-66
2022/06/13 07:04:52;;;;;;;7.85;2.42;;;;;;;;;;5046468;28;20505;-66
2022/06/13 07:07:18;;;;;;;10.38;2.10;;;;;;;;;;5033011;28;20531;-66
2022/06/13 07:09:44;;;;;;;5.18;1.63;;;;;;;;;;5037866;28;20037;-66
2022/06/13 07:12:10;;;;;;;5.82;1.48;;;;;;;;;;5038117;28;20036;-67
2022/06/13 07:14:37;;;;;;;6.03;1.60;;;;;;;;;;5046862;28;20098;-66
2022/06/13 07:17:04;;;;;;;5.78;1.40;;;;;;;;;;5022455;28;20041;-66
2022/06/13 07:19:31;;;;;;;9.68;2.08;;;;;;;;;;5046800;28;20036;-66
2022/06/13 07:21:57;;;;;;;8.00;2.22;;;;;;;;;;5042428;28;20055;-67
2022/06/13 07:24:26;;;;;;;3.97;1.00;;;;;;;;;;5032122;28;20041;-66
2022/06/13 07:26:52;;;;;;;3.85;1.08;;;;;;;;;;5028668;28;20494;-66
2022/06/13 07:29:18;;;;;;;5.78;1.80;;;;;;;;;;5033654;28;20048;-67
2022/06/13 07:31:58;;;;;;;9.27;1.58;;;;;;;;;;5047965;28;20069;-66
2022/06/13 07:34:25;;;;;;;6.20;1.10;;;;;;;;;;5049799;28;20111;-66
2022/06/13 07:36:52;;;;;;;4.70;1.13;;;;;;;;;;5047484;28;20048;-66
2022/06/13 07:39:18;;;;;;;5.25;1.40;;;;;;;;;;5047526;28;20449;-66
2022/06/13 07:41:44;;;;;;;4.82;1.30;;;;;;;;;;5036669;28;20043;-67
2022/06/13 07:44:19;;;;;;;8.65;1.42;;;16.20;99.90;;;;;;5068055;28;20048;-66
2022/06/13 07:46:46;;;;;;;5.47;1.48;;;;;;;;;;5066399;28;20045;-66
2022/06/13 07:49:13;;;;;;;6.75;1.42;;;;;;;;;;5029253;28;20087;-67
2022/06/13 07:51:39;;;;;;;6.15;1.45;;;;;;;;;;5031547;28;20049;-66
2022/06/13 07:54:05;;;;;;;5.97;1.50;;;;;;;;;;5032032;28;20045;-66
2022/06/13 07:56:31;;;;;;;5.43;1.42;;;;;;;;;;5045726;28;20037;-67
2022/06/13 07:58:58;;;;;;;7.85;1.70;;;;;;;;;;5046505;28;20045;-65
2022/06/13 08:01:25;;;;;;;8.23;1.80;;;;;;;;;;5047338;28;20040;-66
2022/06/13 08:03:54;;;;;;;6.90;1.73;;;;;;;;;;5048269;28;20045;-67
2022/06/13 08:06:21;;;;;;;4.32;1.33;;;;;;;;;;5050398;28;20037;-66
2022/06/13 08:08:47;;;;;;;7.40;1.80;;;;;;;;;;5050089;28;20089;-66
2022/06/13 08:11:15;;;;;;;6.30;1.60;;;;;;;;;;5051423;28;20075;-66
2022/06/13 08:13:41;;;;;;;7.50;2.30;;;;;;;;;;5041321;28;20092;-66
2022/06/13 08:16:08;;;;;;;5.68;1.73;;;;;;;;;;5021317;28;20049;-66
2022/06/13 08:18:35;;;;;;;7.00;1.90;;;;;;;;;;5017508;28;20041;-67
2022/06/13 08:21:01;;;;;;;6.85;1.65;;;;;;;;;;5044254;28;20044;-67
2022/06/13 08:23:27;;;;;;;10.57;1.85;;;;;;;;;;5046305;28;20079;-67
2022/06/13 08:25:53;;;;;;;6.50;1.80;;;;;;;;;;5047345;28;20060;-68
2022/06/13 08:28:20;;;;;;;8.48;2.50;;;;;;;;;;5032899;28;20042;-68
2022/06/13 08:30:48;;;;;;;8.70;2.20;;;;;;;;;;5050709;28;20049;-68
2022/06/13 08:33:14;;;;;;;7.55;1.92;;;;;;;;;;5052090;28;20052;-67
2022/06/13 08:35:41;;;;;;;9.52;2.20;;;;;;;;;;5052892;28;20041;-67
2022/06/13 08:38:07;;;;;;;8.30;2.05;;;;;;;;;;5039898;28;20216;-67
2022/06/13 08:40:43;;;;;;;8.00;2.13;;;;;;;;;;5040703;28;20044;-67
2022/06/13 08:43:33;;;;;;;7.97;2.42;;;16.40;99.90;;;;;;5044632;28;20045;-66
2022/06/13 08:46:16;;;;;;;10.90;2.67;;;16.00;99.90;;;;;;5035005;28;20041;-66
2022/06/13 08:48:47;;;;;;;6.93;1.60;;;15.60;99.90;;;;;;5048974;28;20751;-67
2022/06/13 08:51:25;;;;;;;7.60;1.60;;;15.70;99.90;;;;;;5050836;28;20041;-67
2022/06/13 08:53:57;;;;;;;10.52;3.03;;;15.80;99.90;;;;;;5042839;28;20119;-67
2022/06/13 08:56:27;;;;;;;6.60;1.73;;;15.80;99.90;;;;;;5049710;28;20044;-67
2022/06/13 08:59:22;;;;;;;7.50;2.20;;;16.00;99.90;;;;;;5038384;28;20794;-67
2022/06/13 09:01:53;;;;;;;10.40;2.20;;;15.90;99.90;;;;;;5038197;28;20110;-67
2022/06/13 09:04:37;;;;;;;10.55;2.10;;;15.90;99.90;;;;;;5046948;28;20089;-66
2022/06/13 09:07:41;;;;;;;8.88;1.95;;;15.70;99.90;;;;;;5051225;28;20045;-67
2022/06/13 09:10:19;;;;;;;7.68;2.00;;;15.80;99.90;;;;;;5048332;28;20129;-66
2022/06/13 09:12:58;;;;;;;8.77;2.03;;;;;;;;;;5052571;28;20056;-68
2022/06/13 09:15:38;;;;;;;8.63;1.83;;;16.30;99.90;;;;;;5050360;28;20103;-67
2022/06/13 09:18:31;;;;;;;10.95;2.20;;;16.50;99.90;;;;;;5043391;28;20043;-67
2022/06/13 09:21:03;;;;;;;8.80;2.45;;;16.40;99.90;;;;;;5031025;28;20044;-67
2022/06/13 09:23:35;;;;;;;9.43;2.65;;;16.20;99.90;;;;;;5015374;28;20034;-67
2022/06/13 09:26:35;;;;;;;8.07;2.40;;;16.00;99.90;;;;;;5013938;28;20041;-68
2022/06/13 09:29:18;;;;;;;8.30;2.65;;;16.10;99.90;;;;;;5045249;28;20465;-67
2022/06/13 09:31:46;;;;;;;12.07;2.30;;;15.80;99.90;;;;;;5048970;28;20057;-67
2022/06/13 09:34:30;;;;;;;9.07;2.80;;;15.90;99.90;;;;;;5027275;28;20056;-68
2022/06/13 09:37:10;;;;;;;9.63;2.20;;;16.00;99.90;;;;;;5031723;28;20111;-67
2022/06/13 09:39:37;;;;;;;7.22;2.25;;;16.20;99.90;;;;;;5030254;28;20053;-68
2022/06/13 09:42:18;;;;;;;4.72;1.98;;;16.20;99.90;;;;;;5031547;28;20397;-69
2022/06/13 09:45:18;;;;;;;10.77;2.78;;;16.20;99.90;;;;;;5036723;28;20135;-70
2022/06/13 09:47:51;;;;;;;7.40;1.90;;;;;;;;;;5042672;28;20099;-70
2022/06/13 09:50:19;;;;;;;6.68;1.80;;;16.00;99.90;;;;;;5037604;28;20045;-71
2022/06/13 09:53:13;;;;;;;8.13;2.08;;;16.00;99.90;;;;;;5037140;28;20041;-69
2022/06/13 09:55:51;;;;;;;10.35;2.53;;;16.30;99.90;;;;;;5031105;28;20402;-70
2022/06/13 09:58:19;;;;;;;8.77;2.45;;;;;;;;;;5032316;28;20077;-70
2022/06/13 10:01:04;;;;;;;11.30;2.42;;;16.30;99.90;;;;;;5031639;28;20127;-69
2022/06/13 10:03:43;;;;;;;10.70;3.42;;;16.50;99.90;;;;;;5036958;28;20694;-69
2022/06/13 10:06:25;;;;;;;5.80;2.00;;;16.70;99.90;;;;;;5038493;28;20094;-68
2022/06/13 10:08:54;;;;;;;7.88;2.20;;;16.40;99.90;;;;;;5029650;28;20394;-68
2022/06/13 10:11:35;;;;;;;7.75;1.92;;;16.10;99.90;;;;;;5037125;28;20459;-68
2022/06/13 10:14:06;;;;;;;8.82;2.40;;;;;;;;;;5031958;28;20104;-68
2022/06/13 10:17:02;;;;;;;6.72;1.80;;;16.30;99.90;;;;;;5042485;28;20041;-68
2022/06/13 10:20:07;;;;;;;11.20;3.03;;;16.60;99.90;;;;;;5036382;28;20045;-67
2022/06/13 10:23:05;;;;;;;5.72;1.85;;;16.70;99.90;;;;;;5034166;28;20064;-67
2022/06/13 10:25:45;;;;;;;7.13;1.70;;;16.90;99.90;;;;;;5038004;28;20052;-67
2022/06/13 10:28:36;;;;;;;11.38;2.88;;;16.80;99.90;;;;;;5040094;28;20072;-67
2022/06/13 10:31:17;;;;;;;10.73;2.40;;;17.00;99.90;;;;;;5035047;28;20053;-67
2022/06/13 10:34:01;;;;;;;15.57;3.47;;;16.70;99.90;;;;;;5028156;28;20056;-67
2022/06/13 10:36:45;;;;;;;8.77;2.33;;;16.80;99.90;;;;;;5049944;28;20497;-67
2022/06/13 10:39:14;;;;;;;10.35;2.22;;;16.90;99.90;;;;;;5032392;28;20046;-69
2022/06/13 10:41:45;;;;;;;7.30;2.33;;;;;;;;;;5028667;28;20076;-69
2022/06/13 10:44:13;;;;;;;9.32;2.45;;;;;;;;;;5012517;28;20041;-69
2022/06/13 10:46:49;;;;;;;7.82;1.92;;;17.50;99.90;;;;;;5041667;28;20079;-69
2022/06/13 10:49:31;;;;;;;10.13;1.83;;;17.50;99.90;;;;;;5047960;28;20366;-66
2022/06/13 10:52:02;;;;;;;11.40;2.47;;;17.50;99.90;;;;;;5048328;28;20040;-67
2022/06/13 10:54:37;;;;;;;7.78;2.10;;;17.40;99.90;;;;;;5044200;28;20041;-68
2022/06/13 10:57:14;;;;;;;11.85;2.50;;;17.30;99.90;;;;;;5034544;28;20502;-68
2022/06/13 10:59:40;;;;;;;6.72;2.60;;;17.10;99.90;;;;;;5046017;28;20069;-69
2022/06/13 11:02:26;;;;;;;10.68;2.60;;;17.30;99.90;;;;;;5050484;28;20044;-69
2022/06/13 11:05:11;;;;;;;7.85;2.65;;;17.40;99.90;;;;;;5050935;28;20037;-69
2022/06/13 11:07:46;;;;;;;10.63;2.30;;;16.90;99.90;;;;;;5053158;28;20041;-68
2022/06/13 11:10:57;;;;;;;8.30;2.40;;;17.30;99.90;;;;;;5050776;28;20333;-68
2022/06/13 11:13:29;;;;;;;10.32;3.10;;;17.10;99.90;;;;;;5050961;28;20433;-69
2022/06/13 11:24:42;;;;;;;9.85;2.65;;;17.10;99.90;;;;;;5050617;28;20045;-69
2022/06/13 11:30:25;;;;;;;8.20;2.05;;;17.50;99.90;;;;;;5049956;28;20057;-69
2022/06/13 11:33:04;;;;;;;5.75;1.73;;;17.30;99.90;;;;;;5050477;28;20094;-69
2022/06/13 11:35:45;;;;;;;9.02;2.30;;;17.30;99.90;;;;;;5052042;28;20433;-69
2022/06/13 11:38:18;;;;;;;9.35;2.22;;;17.20;99.90;;;;;;5049224;28;20486;-69
2022/06/13 11:41:00;;;;;;;5.70;1.88;;;17.30;99.90;;;;;;5052396;28;20041;-69
2022/06/13 11:43:48;;;;;;;7.13;2.40;;;17.50;99.90;;;;;;5051417;28;20513;-69
2022/06/13 11:46:36;;;;;;;5.15;1.73;;;;;;;;;;5050564;28;20041;-69
2022/06/13 11:49:27;;;;;;;5.32;2.00;;;17.80;99.90;;;;;;5033930;28;20045;-69
2022/06/13 11:51:59;;;;;;;13.15;6.03;;;17.90;99.90;;;;;;5049764;28;20142;-69
2022/06/13 11:54:37;;;;;;;7.53;2.55;;;17.70;99.90;;;;;;5052222;28;20041;-69
2022/06/13 11:57:18;;;;;;;8.95;2.30;;;17.80;99.90;;;;;;5046686;28;20084;-64
2022/06/13 11:59:52;;;;;;;8.95;2.20;;;17.50;99.90;;;;;;5030102;28;20048;-63
2022/06/13 12:02:26;;;;;;;8.00;2.35;;;17.40;99.90;;;;;;5035996;28;20183;-66
2022/06/13 12:04:55;;;;;;;11.80;2.20;;;17.40;99.90;;;;;;5033496;28;20486;-66
2022/06/13 12:07:25;;;;;;;7.05;2.20;;;17.00;99.90;;;;;;5021642;28;20037;-66
2022/06/13 12:09:54;;;;;;;8.98;3.78;;;17.50;99.90;;;;;;5051651;28;20045;-66
2022/06/13 12:12:20;;;;;;;9.23;2.80;;;17.90;99.90;;;;;;5051598;28;20181;-66
2022/06/13 12:14:46;;;;;;;7.13;2.92;;;18.00;99.90;;;;;;5051584;28;20508;-66
2022/06/13 12:17:37;;;;;;;7.85;1.98;;;18.00;99.90;;;;;;5050443;28;20037;-66
2022/06/13 12:20:22;;;;;;;8.95;2.35;;;17.60;99.90;;;;;;5050601;28;20045;-67
2022/06/13 12:23:13;;;;;;;4.90;1.70;;;17.70;99.90;;;;;;5051550;28;20458;-66
2022/06/13 12:26:03;;;;;;;4.63;1.42;;;17.50;99.90;;;;;;5048019;28;20053;-65
2022/06/13 12:28:46;;;;;;;7.05;1.58;;;17.40;99.90;;;;;;5037290;28;20045;-66
2022/06/13 12:31:48;;;;;;;5.88;2.00;;;17.50;99.90;;;;;;5050010;28;20072;-66
2022/06/13 12:34:41;;;;;;;8.35;1.92;;;17.60;99.90;;;;;;5042654;28;20041;-67
2022/06/13 12:37:33;;;;;;;7.40;1.40;;;17.80;99.90;;;;;;5051525;28;20052;-66
2022/06/13 12:40:20;;;;;;;9.88;2.38;;;17.80;99.90;;;;;;5049835;28;20547;-66
2022/06/13 12:43:25;;;;;;;5.40;1.90;;;17.80;99.90;;;;;;5050190;28;20041;-66
2022/06/13 12:46:09;;;;;;;7.90;1.70;;;17.70;99.90;;;;;;5049966;28;20033;-67
2022/06/13 12:48:48;;;;;;;6.80;2.63;;;17.80;99.90;;;;;;5049434;28;20041;-67
2022/06/13 12:51:34;;;;;;;7.28;1.60;;;17.70;99.90;;;;;;5040542;28;20048;-67
2022/06/13 12:54:23;;;;;;;10.43;2.50;;;17.90;99.90;;;;;;5054253;28;20393;-67
2022/06/13 12:57:04;;;;;;;6.38;1.85;;;17.90;99.90;;;;;;5054061;28;20048;-67
2022/06/13 12:59:48;;;;;;;7.43;1.30;;;17.70;99.90;;;;;;5054189;28;20567;-66
2022/06/13 13:02:32;;;;;;;4.38;1.23;;;17.80;99.90;;;;;;5054629;28;20502;-67
2022/06/13 13:04:58;;;;;;;4.47;1.40;;;;;;;;;;5052015;28;20501;-66
2022/06/13 13:07:30;;;;;;;5.50;1.75;;;;;;;;;;5053814;28;20049;-66
2022/06/13 13:10:15;;;;;;;5.43;1.58;;;;;;;;;;5052216;28;20374;-66
2022/06/13 13:12:47;;;;;;;6.43;1.85;;;;;;;;;;5053731;28;20033;-66
2022/06/13 13:15:19;;;;;;;6.10;1.45;;;;;;;;;;5053899;28;20056;-66
2022/06/13 13:17:49;;;;;;;8.00;1.73;;;;;;;;;;5037254;28;20370;-66
2022/06/13 13:20:23;;;;;;;7.30;1.63;;;;;;;;;;5055231;28;20089;-66
2022/06/13 13:23:12;;;;;;;7.43;1.70;;;;;;;;;;5042464;28;20501;-66
2022/06/13 13:25:40;;;;;;;7.07;1.67;;;;;;;;;;5049052;28;20082;-66
2022/06/13 13:28:32;;;;;;;8.93;1.85;;;;;;;;;;5047447;28;20038;-65
2022/06/13 13:31:02;;;;;;;5.03;1.60;;;;;;;;;;5032104;28;20057;-67
2022/06/13 13:33:34;;;;;;;6.88;1.30;;;;;;;;;;5033435;28;20050;-66
2022/06/13 13:36:20;;;;;;;6.15;1.35;;;;;;;;;;5032808;28;20139;-66
2022/06/13 13:38:50;;;;;;;11.52;1.75;;;;;;;;;;5032931;28;20045;-69
2022/06/13 13:41:19;;;;;;;5.07;1.40;;;;;;;;;;5016815;28;20395;-69
2022/06/13 13:43:45;;;;;;;5.03;1.08;;;;;;;;;;5033582;28;20130;-68
2022/06/13 13:46:29;;;;;;;8.43;1.40;;;;;;;;;;5033289;28;20076;-67
2022/06/13 13:48:57;;;;;;;6.10;1.48;;;;;;;;;;5040591;28;20454;-67
2022/06/13 13:51:36;;;;;;;5.97;1.40;;;;;;;;;;5042421;28;20042;-67
2022/06/13 13:54:09;;;;;;;4.43;1.35;;;;;;;;;;5043147;28;20045;-69
2022/06/13 13:56:44;;;;;;;3.33;1.35;;;18.80;99.90;;;;;;5041538;28;20034;-67
2022/06/13 13:59:15;;;;;;;6.95;1.33;;;;;;;;;;5025434;28;20041;-67
2022/06/13 14:01:57;;;;;;;5.60;1.38;;;;;;;;;;5052213;28;20041;-66
2022/06/13 14:04:42;;;;;;;6.03;1.30;;;;;;;;;;5036704;28;20033;-65
2022/06/13 14:07:08;;;;;;;;;;;;;;;;;;5053003;28;20407;-66
2022/06/13 14:09:35;;;;;;;8.25;1.70;;;;;;;;;;5054170;28;19917;-65
2022/06/13 14:12:03;;;;;;;4.97;1.65;;;;;;;;;;5052646;28;20041;-66
2022/06/13 14:14:38;;;;;;;4.75;1.23;;;;;;;;;;5047811;28;20170;-66
2022/06/13 14:17:05;;;;;;;7.47;1.27;;;;;;;;;;5051018;28;20040;-66
2022/06/13 14:19:33;;;;;;;5.18;1.38;;;;;;;;;;5038839;28;20037;-67
2022/06/13 14:22:01;;;;;;;4.63;1.25;;;;;;;;;;5052540;28;20041;-66
2022/06/13 14:24:29;;;;;;;6.50;1.73;;;;;;;;;;5052608;28;20048;-66
2022/06/13 14:26:59;;;;;;;10.07;3.20;;;;;;;;;;5052679;28;20432;-66
2022/06/13 14:29:25;;;;;;;6.13;1.92;;;;;;;;;;5033091;28;20394;-66
2022/06/13 14:32:02;;;;;;;8.45;1.30;;;;;;;;;;5031694;28;20062;-66
2022/06/13 14:37:25;;;;;;;4.25;1.50;;;19.00;99.50;;;;;;5032894;28;20470;-65
2022/06/13 14:39:57;;;;;;;6.50;1.50;;;19.10;98.40;;;;;;5032413;28;20081;-66
2022/06/13 14:42:32;;;;;;;3.80;1.23;;;18.80;98.20;;;;;;5036797;28;20041;-67
2022/06/13 14:45:12;;;;;;;;;;;18.70;99.30;;;;;;5048875;28;20484;-66
2022/06/13 14:47:58;;;;;;;3.92;1.23;;;18.60;99.70;;;;;;5032496;28;20283;-71
2022/06/13 14:50:46;;;;;;;4.85;1.40;;;18.60;99.60;;;;;;5033154;28;20057;-71
2022/06/13 14:53:36;;;;;;;7.68;2.00;;;18.70;99.20;;;;;;5040134;28;20119;-68
2022/06/13 14:56:08;;;;;;;4.60;1.05;;;18.50;99.90;;;;;;5028628;28;20045;-66
2022/06/13 14:58:45;;;;;;;7.60;2.05;;;18.50;99.90;;;;;;5030454;28;20072;-66
2022/06/13 15:01:25;;;;;;;6.43;1.60;;;18.60;99.90;;;;;;5014043;28;20045;-66
2022/06/13 15:04:03;;;;;;;6.35;1.50;;;18.80;99.90;;;;;;5030052;28;20394;-66